This demonstration page uses our WeatherBlox Daily Observations layout. Learn more.

36.17497, -115.13722

Hourly Observations for July 8, 2019

Temp ( °F °C ) Dew Point ( °F °C ) Humidity (%) Winds ( mph kmh ) Pressure ( in mb ) Visibility ( mi km ) Precip ( " mm )
12:53 am 00:53 Clear 85 29.4 34 1.1 16 16 SSW 10 17 29.74 1007 10 16.09344 0 0
1:53 am 01:53 Clear 84 28.9 34 1.1 17 17 SW 9 15 29.74 1007 10 16.09344 0 0
2:53 am 02:53 Clear 82 27.8 36 2.2 19 19 SSW 8 13 29.74 1007 10 16.09344 0 0
3:53 am 03:53 Clear 81 27.2 37 2.8 21 21 SSW 13 20 29.77 1008 10 16.09344 0 0
4:53 am 04:53 Clear 79 26.1 37 2.8 22 22 S 9 15 29.77 1008 10 16.09344 0 0
5:53 am 05:53 Sunny 78 25.6 37 2.8 23 23 S 7 11 29.8 1009 10 16.09344 0 0
6:53 am 06:53 Sunny 79 26.1 36 2.2 21 21 S 15 24 29.83 1010 10 16.09344 0 0
7:53 am 07:53 Sunny 82 27.8 35 1.7 18 18 S 12 19 29.83 1010 10 16.09344 0 0
8:53 am 08:53 Sunny 84 28.9 33 0.6 16 16 S 14 22 29.83 1010 10 16.09344 0 0
9:53 am 09:53 Sunny 87 30.6 33 0.6 14 14 SSE 14 22 29.83 1010 10 16.09344 0 0
10:53 am 10:53 Sunny 90 32.2 32 0 13 13 SSW 10 17 29.83 1010 10 16.09344 0 0
11:53 am 11:53 Sunny 93 33.9 30 -1.1 10 10 SSW 15 24 29.8 1009 10 16.09344 0 0
12:53 pm 12:53 Sunny 95 35 30 -1.1 10 10 SSW 15 24 29.8 1009 10 16.09344 0 0
1:53 pm 13:53 Sunny 96 35.6 29 -1.7 9 9 SSW 14 22 29.77 1008 10 16.09344 0 0
2:53 pm 14:53 Sunny 99 37.2 27 -2.8 8 8 SW 16 26 29.77 1008 10 16.09344 0 0
3:53 pm 15:53 Sunny 98 36.7 28 -2.2 8 8 SSW 14 22 29.74 1007 10 16.09344 0 0
4:53 pm 16:53 Sunny 98 36.7 27 -2.8 8 8 SSW 15 24 29.74 1007 10 16.09344 0 0
5:53 pm 17:53 Sunny 97 36.1 28 -2.2 9 9 SW 13 20 29.74 1007 10 16.09344 0 0
6:53 pm 18:53 Sunny 96 35.6 29 -1.7 9 9 SW 13 20 29.74 1007 10 16.09344 0 0
7:53 pm 19:53 Sunny 94 34.4 28 -2.2 9 9 SW 13 20 29.77 1008 10 16.09344 0 0
8:53 pm 20:53 Clear 92 33.3 30 -1.1 11 11 SSW 8 13 29.77 1008 10 16.09344 0 0
9:53 pm 21:53 Clear 89 31.7 33 0.6 14 14 S 8 13 29.8 1009 10 16.09344 0 0
10:53 pm 22:53 Clear 88 31.1 33 0.6 14 14 SSW 10 17 29.8 1009 10 16.09344 0 0
11:53 pm 23:53 Clear 87 30.6 33 0.6 14 14 SSW 10 17 29.8 1009 10 16.09344 0 0

Powered by AerisWeather